Accueil
METAR-TAF:

METAR-TAF

Aéroports :

Beauvechain, Belgique

Base aérienne de Beauvechain

latitude: 50-45N, longitude: 004-46E, altitude: 105 m

Observation

Le bulletin a été fait il y a 11 minutes, à 15:25 UTC
Vent 6 kt de nord/nord-est
Température 24°C
Humidité 38%
Pression 1019 hPa
Visibilité 10 km ou plus

METAR: EBBE 211525Z AUTO 03006KT 9999 NCD 24/09 Q1019 BLU

Heure: 17:36 (15:36 UTC)

Prévision

Le bulletin a été fait il y a 23 heures et 55 minutes, à 15:41 UTC
Prévision valable du 20 à 19 UTC au 21 à 07 UTC
Vent 8 kt de nord/nord-ouest
Visibilité 10 km ou plus
Quelques nuages à une hauteur de 5000 ft
Probabilité 40% :
Evoluant progressivement
du 21 à 05 UTC au 21 à 07 UTC
Vent 2 kt de direction variable
Visibilité: 4000 m
Quelques nuages à une hauteur de 1000 ft
brume

TAF: EBBE 201541Z 2019/2107 33008KT 9999 FEW050 PROB40 BECMG 2105/2107 VRB02KT 4000 BR FEW010

Observations et prévisions météorologiques de plus de 4000 aéroports (messages METAR et TAF).

Les stations disponibles sont représentées par des disques jaunes et rouges sur la carte.

Passer la souris dessus pour voir le nom de la station.

Cliquer dessus pour voir les observations et prévisions météorologiques.

Pour changer de carte: cliquez sur les boutons verts avec une croix noire pour zoomer, sur le bouton vert avec un tiret pour effectuer un zoom arrière, ou sur les flèches vertes pour les cartes adjacentes.


METAR-TAF: